LIBG

Taranto-Grottaglie "Marcello Arlotta" Airport

Grottaglie, Italy
TAF LIBG 241700Z 2418/2503 01015KT CAVOK TEMPO 2418/2421 RA
Issued Valid From Valid To
Sep-24 @ 17:00 UTC
(3 hours ago)
Sep-24 @ 18:00 UTC
(2 hours ago)
Sep-25 @ 03:00 UTC
(in 7 hours)
Sep-24 @ 18:00 to Sep-25 @ 03:00
TAF LIBG 241700Z 2418/2503 01015KT CAVOK
Wind Visibility Clouds Conditions
10° at 15 knots 10,000+ meters
  • No significant clouds
Temporary Sep-24 @ 18:00 to Sep-24 @ 21:00
TEMPO 2418/2421 RA
Conditions
  • Rain
TAF LIBG 241700Z 2418/2503 01015KT CAVOK TEMPO 2418/2421 RA
Issued Sep-24 @ 17:00 UTC
(3 hours ago)
Valid From Sep-24 @ 18:00 UTC
(2 hours ago)
Valid To Sep-25 @ 03:00 UTC
(in 7 hours)
Sep-24 @ 18:00 - Sep-25 @ 03:00
Wind Visibility
10° at 15 knots 10,000+ meters
Clouds
  • No significant clouds
Conditions
Temporary Sep-24 @ 18:00 - Sep-24 @ 21:00
Conditions
  • Rain